Time;durP1;ratioP1;P1;durP2;ratioP2;P2;SDS_P1;SDS_P2;PMS_P1;PMS_P2;Temp;Humidity;BMP_temperature;BMP_pressure;BME280_temperature;BME280_humidity;BME280_pressure;Samples;Min_cycle;Max_cycle;Signal;HPM_P1;HPM_P2
2023/07/11 00:00:44;;;;;;;6.38;3.10;;;;;;;19.60;66.63;97548.22;5064748;28;20044;-56
2023/07/11 00:03:12;;;;;;;5.93;3.50;;;;;;;19.63;66.49;97553.13;5064034;28;20622;-55
2023/07/11 00:05:39;;;;;;;5.75;3.15;;;;;;;19.36;67.83;97545.72;5064810;28;20090;-57
2023/07/11 00:08:06;;;;;;;6.75;3.10;;;;;;;19.19;68.53;97546.31;5061843;28;20060;-53
2023/07/11 00:10:33;;;;;;;7.05;3.40;;;;;;;19.18;68.60;97536.44;5064088;28;20056;-56
2023/07/11 00:13:00;;;;;;;5.65;3.03;;;;;;;19.13;68.85;97542.03;5064170;28;20138;-55
2023/07/11 00:15:26;;;;;;;5.55;3.17;;;;;;;19.12;68.36;97533.00;5067713;28;20055;-53
2023/07/11 00:17:53;;;;;;;6.97;3.15;;;;;;;19.13;68.10;97536.56;5064674;28;20033;-56
2023/07/11 00:20:20;;;;;;;5.90;3.40;;;;;;;19.05;68.54;97543.53;5064888;28;20271;-58
2023/07/11 00:22:47;;;;;;;5.85;3.10;;;;;;;19.01;68.91;97537.03;5063605;28;20041;-56
2023/07/11 00:25:13;;;;;;;7.35;4.18;;;;;;;18.88;70.10;97533.97;5063732;28;20665;-56
2023/07/11 00:27:40;;;;;;;5.28;2.90;;;;;;;18.81;70.55;97533.53;5064083;28;20058;-56
2023/07/11 00:30:08;;;;;;;6.65;3.60;;;;;;;18.76;70.37;97531.69;5064073;28;20049;-55
2023/07/11 00:32:35;;;;;;;8.23;3.10;;;;;;;18.62;71.13;97520.72;5063655;28;20048;-55
2023/07/11 00:35:02;;;;;;;6.00;3.13;;;;;;;18.57;71.67;97524.34;5063284;28;20048;-57
2023/07/11 00:37:29;;;;;;;7.40;3.40;;;;;;;18.53;71.94;97517.84;5064004;28;20499;-58
2023/07/11 00:39:56;;;;;;;5.22;3.60;;;;;;;18.46;72.17;97515.50;5064268;28;20040;-57
2023/07/11 00:42:23;;;;;;;4.90;3.13;;;;;;;18.45;72.37;97507.56;5063518;28;20064;-57
2023/07/11 00:44:59;;;;;;;6.07;3.30;;;;;;;18.40;72.82;97513.16;5063974;28;20046;-55
2023/07/11 00:47:27;;;;;;;5.90;3.35;;;;;;;18.22;73.67;97512.88;5060133;28;20041;-58
2023/07/11 00:50:01;;;;;;;6.07;3.40;;;;;;;18.16;73.88;97517.63;5064085;28;20137;-55
2023/07/11 00:52:28;;;;;;;6.15;3.50;;;;;;;18.18;73.74;97507.16;5062303;28;20048;-54
2023/07/11 00:55:00;;;;;;;5.63;3.25;;;;;;;18.21;73.87;97505.78;5063506;28;20036;-58
2023/07/11 00:57:31;;;;;;;6.88;3.78;;;;;;;18.22;73.75;97504.66;5064041;28;20487;-57
2023/07/11 00:59:58;;;;;;;5.82;3.42;;;;;;;18.23;73.38;97509.03;5063693;28;20040;-55
2023/07/11 01:02:27;;;;;;;5.43;3.03;;;;;;;18.11;74.28;97504.00;5060399;28;20033;-56
2023/07/11 01:04:55;;;;;;;5.70;3.30;;;;;;;18.11;74.27;97506.75;5063725;28;20127;-58
2023/07/11 01:07:27;;;;;;;6.70;3.83;;;;;;;18.05;74.57;97495.03;5062979;28;20043;-52
2023/07/11 01:09:54;;;;;;;6.65;3.45;;;;;;;18.07;74.46;97501.00;5060309;28;20048;-54
2023/07/11 01:12:21;;;;;;;5.40;3.60;;;;;;;18.11;74.14;97497.72;5063588;28;20032;-56
2023/07/11 01:14:49;;;;;;;6.97;3.30;;;;;;;18.14;73.89;97491.66;5063448;28;20040;-56
2023/07/11 01:17:31;;;;;;;5.32;3.35;;;;;;;18.17;73.97;97496.53;5068112;28;20048;-58
2023/07/11 01:19:59;;;;;;;;;;;;;;;18.19;73.98;97489.63;5060234;28;20119;-57
2023/07/11 01:22:28;;;;;;;5.85;3.55;;;;;;;18.22;73.61;97488.22;5061518;28;19920;-58
2023/07/11 01:25:00;;;;;;;5.22;3.10;;;;;;;18.26;73.34;97494.72;5058765;28;20058;-58
2023/07/11 01:27:27;;;;;;;5.75;3.28;;;;;;;18.28;73.29;97488.94;5063564;28;20068;-54
2023/07/11 01:29:56;;;;;;;8.32;4.03;;;;;;;18.35;72.96;97485.81;5061624;28;20550;-56
2023/07/11 01:32:23;;;;;;;6.75;3.40;;;;;;;18.27;73.12;97488.13;5052026;28;20610;-56
2023/07/11 01:34:49;;;;;;;6.97;3.85;;;;;;;18.20;73.42;97485.78;5060169;28;20051;-57
2023/07/11 01:37:16;;;;;;;6.20;3.30;;;;;;;18.18;73.38;97485.25;5062714;28;20040;-57
2023/07/11 01:39:42;;;;;;;6.97;3.25;;;;;;;18.09;74.09;97481.56;5062529;28;20075;-58
2023/07/11 01:42:09;;;;;;;6.50;3.92;;;;;;;18.12;73.95;97474.66;5061414;28;20120;-58
2023/07/11 01:44:36;;;;;;;5.80;3.35;;;;;;;18.14;73.60;97473.25;5059059;28;20495;-56
2023/07/11 01:47:04;;;;;;;6.45;3.47;;;;;;;18.19;73.46;97475.94;5063388;28;20121;-57
2023/07/11 01:49:30;;;;;;;8.18;4.07;;;;;;;18.22;73.25;97474.53;5059494;28;20040;-58
2023/07/11 01:52:07;;;;;;;5.07;3.60;;;;;;;18.17;73.56;97467.19;5061859;28;20107;-56
2023/07/11 01:54:34;;;;;;;7.40;3.80;;;;;;;18.20;73.13;97471.25;5062360;28;20470;-56
2023/07/11 01:57:02;;;;;;;6.72;3.63;;;;;;;18.22;73.26;97474.53;5062113;28;20090;-57
2023/07/11 01:59:29;;;;;;;5.70;3.38;;;;;;;18.16;73.60;97467.47;5061431;28;20189;-58
2023/07/11 02:01:55;;;;;;;5.88;3.22;;;;;;;18.08;74.08;97460.75;5060591;28;20040;-58
2023/07/11 02:04:23;;;;;;;7.05;4.05;;;;;;;18.01;74.35;97455.63;5061350;28;20066;-55
2023/07/11 02:06:50;;;;;;;7.22;4.03;;;;;;;17.92;74.80;97457.44;5061553;28;20044;-56
2023/07/11 02:09:18;;;;;;;7.43;3.42;;;;;;;17.84;75.34;97458.13;5061821;28;20127;-55
2023/07/11 02:11:45;;;;;;;7.75;3.70;;;;;;;17.80;75.68;97455.97;5058659;28;20598;-55
2023/07/11 02:14:13;;;;;;;6.00;3.90;;;;;;;17.77;75.93;97453.81;5060517;28;20049;-56
2023/07/11 02:16:44;;;;;;;5.68;3.25;;;;;;;17.79;75.59;97453.50;5059810;28;20056;-54
2023/07/11 02:19:12;;;;;;;6.43;3.72;;;;;;;17.83;75.73;97461.97;5062677;28;20078;-57
2023/07/11 02:21:39;;;;;;;6.40;3.80;;;;;;;17.81;75.64;97457.56;5061788;28;20041;-58
2023/07/11 02:24:09;;;;;;;7.28;4.07;;;;;;;17.86;75.54;97453.97;5061964;28;20044;-55
2023/07/11 02:26:36;;;;;;;6.85;4.15;;;;;;;17.89;75.26;97452.53;5061783;28;20039;-55
2023/07/11 02:29:03;;;;;;;5.07;3.17;;;;;;;17.82;75.76;97447.44;5062310;28;20477;-58
2023/07/11 02:31:31;;;;;;;7.32;3.97;;;;;;;17.73;76.30;97441.81;5060650;28;20045;-60
2023/07/11 02:33:58;;;;;;;6.45;4.30;;;;;;;17.65;76.89;97442.50;5060817;28;20040;-56
2023/07/11 02:36:25;;;;;;;6.30;3.83;;;;;;;17.59;77.06;97449.16;5062708;28;20048;-57
2023/07/11 02:38:52;;;;;;;6.03;3.90;;;;;;;17.56;77.13;97442.38;5061162;28;20051;-57
2023/07/11 02:41:18;;;;;;;6.40;3.95;;;;;;;17.55;77.27;97443.47;5062071;28;20048;-55
2023/07/11 02:43:46;;;;;;;6.35;3.45;;;;;;;17.50;77.50;97438.06;5060058;28;20057;-57
2023/07/11 02:46:14;;;;;;;6.72;3.80;;;;;;;17.45;77.76;97440.88;5061525;28;20112;-58
2023/07/11 02:48:42;;;;;;;6.40;4.00;;;;;;;17.44;77.95;97440.06;5061812;28;20068;-59
2023/07/11 02:51:10;;;;;;;6.13;3.92;;;;;;;17.37;78.17;97434.97;5060800;28;20381;-57
2023/07/11 02:53:37;;;;;;;7.57;3.85;;;;;;;17.36;78.31;97435.25;5060355;28;20587;-57
2023/07/11 02:56:04;;;;;;;5.60;3.75;;;;;;;17.38;78.30;97433.03;5062076;28;20044;-57
2023/07/11 02:58:31;;;;;;;6.70;3.55;;;;;;;17.39;78.18;97429.19;5061523;28;20048;-59
2023/07/11 03:01:00;;;;;;;10.05;3.88;;;;;;;17.33;78.47;97433.94;5062044;28;20055;-57
2023/07/11 03:03:27;;;;;;;6.43;3.88;;;;;;;17.35;78.37;97428.97;5062045;28;20139;-57
2023/07/11 03:05:54;;;;;;;6.43;3.60;;;;;;;17.45;77.93;97433.50;5063125;28;20102;-56
2023/07/11 03:08:22;;;;;;;5.65;3.58;;;;;;;17.54;77.24;97428.13;5066681;28;20430;-53
2023/07/11 03:10:48;;;;;;;6.40;3.70;;;;;;;17.63;76.81;97423.66;5065254;28;20163;-56
2023/07/11 03:13:15;;;;;;;5.38;3.67;;;;;;;17.66;76.49;97419.50;5065035;28;20433;-57
2023/07/11 03:15:42;;;;;;;6.80;3.63;;;;;;;17.54;76.66;97420.75;5064776;28;20055;-56
2023/07/11 03:18:09;;;;;;;8.70;4.28;;;;;;;17.47;77.63;97417.56;5048197;28;20049;-56
2023/07/11 03:20:41;;;;;;;6.43;3.80;;;;;;;17.41;77.88;97416.03;5064655;28;20074;-56
2023/07/11 03:23:09;;;;;;;6.35;3.50;;;;;;;17.36;78.22;97414.16;5065232;28;20132;-57
2023/07/11 03:25:36;;;;;;;7.88;3.75;;;;;;;17.32;78.45;97410.38;5064263;28;20068;-57
2023/07/11 03:28:03;;;;;;;7.70;3.65;;;;;;;17.37;78.08;97402.13;5065745;28;20048;-58
2023/07/11 03:30:34;;;;;;;6.55;3.88;;;;;;;17.35;78.49;97408.97;5063249;28;20094;-56
2023/07/11 03:33:01;;;;;;;;;;;;;;;17.14;79.42;97414.75;5062171;28;20124;-59
2023/07/11 03:35:27;;;;;;;6.97;3.60;;;;;;;17.08;79.74;97408.53;5062735;28;19924;-58
2023/07/11 03:37:54;;;;;;;5.88;3.65;;;;;;;17.08;79.67;97403.06;5059731;28;20052;-59
2023/07/11 03:40:20;;;;;;;5.97;3.70;;;;;;;17.16;79.64;97404.31;5063575;28;20039;-59
2023/07/11 03:42:47;;;;;;;8.60;3.60;;;;;;;17.15;79.54;97411.72;5064080;28;20521;-57
2023/07/11 03:45:14;;;;;;;6.90;3.67;;;;;;;17.12;79.52;97406.03;5063806;28;20466;-58
2023/07/11 03:47:41;;;;;;;6.45;4.18;;;;;;;16.97;80.60;97399.63;5059594;28;20049;-60
2023/07/11 03:50:08;;;;;;;7.15;4.30;;;;;;;17.02;80.49;97399.56;5061151;28;20223;-61
2023/07/11 03:52:35;;;;;;;5.53;3.55;;;;;;;17.02;80.41;97401.47;5061646;28;20041;-59
2023/07/11 03:55:02;;;;;;;6.80;3.70;;;;;;;17.15;79.89;97397.22;5061309;28;20040;-60
2023/07/11 03:57:28;;;;;;;7.75;4.50;;;;;;;17.18;79.84;97393.91;5066074;28;20602;-56
2023/07/11 03:59:55;;;;;;;9.35;4.10;;;;;;;17.26;79.28;97393.25;5062577;28;20068;-57
2023/07/11 04:02:21;;;;;;;7.45;3.83;;;;;;;17.25;79.84;97396.28;5058839;28;20049;-59
2023/07/11 04:04:48;;;;;;;8.07;4.20;;;;;;;17.27;79.30;97394.88;5061245;28;20084;-59
2023/07/11 04:07:14;;;;;;;6.10;3.78;;;;;;;17.26;79.52;97396.00;5062294;28;20040;-58
2023/07/11 04:09:42;;;;;;;5.63;3.47;;;;;;;17.32;79.45;97390.44;5062244;28;20060;-56
2023/07/11 04:12:09;;;;;;;7.05;4.07;;;;;;;17.37;79.16;97390.34;5063123;28;20045;-59
2023/07/11 04:14:36;;;;;;;6.15;4.43;;;;;;;17.36;78.81;97383.25;5063256;28;20036;-59
2023/07/11 04:17:03;;;;;;;6.38;4.03;;;;;;;17.25;79.56;97386.13;5063323;28;20055;-60
2023/07/11 04:19:30;;;;;;;6.72;3.85;;;;;;;17.32;79.53;97388.50;5064623;28;20037;-58
2023/07/11 04:21:56;;;;;;;6.80;3.58;;;;;;;17.36;79.48;97388.75;5060928;28;20064;-61
2023/07/11 04:24:23;;;;;;;6.85;4.18;;;;;;;17.39;79.09;97383.47;5064831;28;20037;-60
2023/07/11 04:26:49;;;;;;;7.53;3.92;;;;;;;17.40;79.28;97387.84;5064717;28;20044;-59
2023/07/11 04:29:16;;;;;;;8.55;4.38;;;;;;;17.51;78.64;97388.50;5064625;28;20535;-60
2023/07/11 04:31:42;;;;;;;7.40;3.92;;;;;;;17.54;78.63;97392.56;5061209;28;20500;-60
2023/07/11 04:34:09;;;;;;;8.50;4.50;;;;;;;17.47;78.89;97384.72;5061011;28;20047;-59
2023/07/11 04:36:35;;;;;;;6.57;4.40;;;;;;;17.47;78.94;97392.94;5063732;28;20040;-62
2023/07/11 04:39:03;;;;;;;12.75;4.53;;;;;;;17.59;78.86;97387.03;5061899;28;20129;-61
2023/07/11 04:41:29;;;;;;;7.10;3.83;;;;;;;17.73;77.97;97387.06;5061425;28;20061;-62
2023/07/11 04:43:56;;;;;;;7.82;4.00;;;;;;;17.89;77.23;97393.13;5061898;28;20047;-61
2023/07/11 04:46:22;;;;;;;8.10;4.05;;;;;;;17.94;77.55;97392.19;5059262;28;20792;-61
2023/07/11 04:48:49;;;;;;;7.57;4.35;;;;;;;17.99;77.00;97389.38;5061880;28;20123;-62
2023/07/11 04:51:16;;;;;;;7.43;4.15;;;;;;;18.05;77.00;97382.69;5064673;28;20048;-61
2023/07/11 04:53:43;;;;;;;6.70;3.97;;;;;;;18.13;76.43;97380.41;5061155;28;20137;-61
2023/07/11 04:56:10;;;;;;;7.60;4.38;;;;;;;18.23;76.45;97385.69;5060029;28;20044;-61
2023/07/11 04:58:37;;;;;;;7.72;4.03;;;;;;;18.33;75.96;97388.25;5061781;28;20050;-61
2023/07/11 05:01:08;;;;;;;10.23;4.25;;;;;;;18.45;75.57;97382.28;5061384;28;20048;-62
2023/07/11 05:03:35;;;;;;;6.63;3.90;;;;;;;18.57;75.38;97386.44;5062033;28;20070;-61
2023/07/11 05:06:03;;;;;;;5.72;4.00;;;;;;;18.65;74.54;97385.72;5064647;28;20151;-60
2023/07/11 05:08:31;;;;;;;11.48;4.10;;;;;;;18.77;74.25;97385.22;5061549;28;20063;-62
2023/07/11 05:11:07;;;;;;;6.28;3.55;;;;;;;18.86;73.50;97377.09;5063039;28;20055;-61
2023/07/11 05:13:34;;;;;;;6.63;3.70;;;;;;;19.01;73.12;97372.41;5062882;28;20033;-61
2023/07/11 05:16:04;;;;;;;7.32;3.92;;;;;;;19.16;72.23;97377.56;5063522;28;20070;-61
2023/07/11 05:18:32;;;;;;;5.93;3.55;;;;;;;19.29;71.91;97375.09;5061174;28;20156;-62
2023/07/11 05:20:58;;;;;;;8.15;3.88;;;;;;;19.41;71.27;97366.31;5060991;28;20071;-61
2023/07/11 05:23:28;;;;;;;6.13;3.83;;;;;;;19.57;70.10;97364.84;5061693;28;20055;-62
2023/07/11 05:25:55;;;;;;;7.20;3.92;;;;;;;19.73;69.37;97361.72;5060950;28;20135;-61
2023/07/11 05:28:24;;;;;;;5.95;3.75;;;;;;;19.84;69.22;97359.53;5061997;28;20139;-61
2023/07/11 05:30:52;;;;;;;6.55;3.38;;;;;;;19.94;68.97;97352.97;5064091;28;20053;-61
2023/07/11 05:33:19;;;;;;;7.13;4.18;;;;;;;20.02;68.74;97344.00;5059137;28;20106;-60
2023/07/11 05:35:57;;;;;;;5.97;3.63;;;;;;;20.16;68.21;97338.38;5061490;28;20515;-61
2023/07/11 05:38:24;;;;;;;7.32;3.60;;;;;;;20.31;67.19;97348.16;5059916;28;20052;-61
2023/07/11 05:40:51;;;;;;;7.10;3.80;;;;;;;20.50;66.70;97347.13;5062776;28;20033;-62
2023/07/11 05:43:18;;;;;;;11.25;3.53;;;;;;;20.70;66.08;97350.41;5061922;28;20127;-62
2023/07/11 05:45:44;;;;;;;7.78;4.13;;;;;;;20.91;63.96;97350.66;5063500;28;20410;-61
2023/07/11 05:48:12;;;;;;;7.03;3.75;;;;;;;21.05;63.90;97340.31;5062997;28;20439;-61
2023/07/11 05:50:38;;;;;;;8.38;3.63;;;;;;;21.24;63.32;97343.88;5061938;28;20047;-61
2023/07/11 05:53:06;;;;;;;5.88;3.28;;;;;;;21.34;62.27;97340.81;5060256;28;20040;-61
2023/07/11 05:55:33;;;;;;;5.85;3.38;;;;;;;21.48;61.44;97339.84;5062135;28;20480;-62
2023/07/11 05:57:59;;;;;;;8.75;3.80;;;;;;;21.63;61.28;97339.34;5061100;28;20044;-62
2023/07/11 06:00:26;;;;;;;7.40;3.58;;;;;;;21.78;60.59;97342.75;5061176;28;20041;-61
2023/07/11 06:02:52;;;;;;;6.95;4.30;;;;;;;21.91;60.14;97339.00;5059794;28;20059;-62
2023/07/11 06:05:19;;;;;;;7.78;3.53;;;;;;;22.06;58.61;97336.84;5060684;28;20123;-62
2023/07/11 06:07:47;;;;;;;8.02;3.97;;;;;;;22.21;58.30;97333.56;5060416;28;20511;-62
2023/07/11 06:10:13;;;;;;;6.00;3.45;;;;;;;22.37;57.23;97337.72;5060485;28;20127;-62
2023/07/11 06:12:40;;;;;;;6.55;3.60;;;;;;;22.51;56.89;97332.78;5059367;28;20089;-61
2023/07/11 06:15:07;;;;;;;6.88;3.17;;;;;;;22.63;56.17;97332.13;5059029;28;20082;-61
2023/07/11 06:17:33;;;;;;;5.60;3.13;;;;;;;22.77;56.12;97331.84;5063422;28;20499;-62
2023/07/11 06:20:00;;;;;;;6.38;3.45;;;;;;;22.89;55.25;97324.81;5063029;28;20048;-62
2023/07/11 06:22:27;;;;;;;6.20;3.10;;;;;;;23.02;54.72;97323.75;5063111;28;20147;-62
2023/07/11 06:24:53;;;;;;;4.78;2.90;;;;;;;23.16;54.54;97330.94;5060017;28;20045;-62
2023/07/11 06:27:20;;;;;;;7.53;3.60;;;;;;;23.26;54.59;97331.34;5059362;28;20788;-61
2023/07/11 06:29:46;;;;;;;8.18;3.50;;;;;;;23.37;53.94;97328.22;5063215;28;20119;-62
2023/07/11 06:32:13;;;;;;;8.48;4.13;;;;;;;23.46;54.23;97319.84;5059549;28;20055;-62
2023/07/11 06:34:40;;;;;;;6.80;3.65;;;;;;;23.52;54.74;97316.53;5067490;28;20064;-62
2023/07/11 06:37:06;;;;;;;5.72;3.30;;;;;;;23.65;54.85;97313.81;5077790;28;20094;-61
2023/07/11 06:39:33;;;;;;;5.95;3.50;;;;;;;23.75;54.18;97313.41;5064735;28;20048;-61
2023/07/11 06:42:00;;;;;;;6.50;3.80;;;;;;;23.87;54.55;97323.69;5065088;28;20037;-63
2023/07/11 06:44:26;;;;;;;5.78;3.47;;;;;;;23.93;54.21;97317.94;5064123;28;20048;-62
2023/07/11 06:46:53;;;;;;;6.57;3.78;;;;;;;24.07;53.78;97307.38;5063864;28;20036;-61
2023/07/11 06:49:19;;;;;;;5.47;3.45;;;;;;;24.25;54.14;97313.53;5066136;28;20041;-62
2023/07/11 06:51:48;;;;;;;6.38;3.50;;;;;;;24.34;53.19;97316.19;5065109;28;20048;-62
2023/07/11 06:54:14;;;;;;;9.13;4.15;;;;;;;24.42;52.97;97317.22;5064950;28;20119;-62
2023/07/11 06:56:41;;;;;;;6.18;3.75;;;;;;;24.47;52.51;97311.47;5062874;28;20079;-61
2023/07/11 06:59:08;;;;;;;5.90;3.83;;;;;;;24.57;52.39;97306.63;5065740;28;20051;-60
2023/07/11 07:01:35;;;;;;;6.65;3.83;;;;;;;24.66;51.93;97305.34;5060780;28;20159;-58
2023/07/11 07:04:04;;;;;;;8.50;4.18;;;;;;;24.72;52.42;97314.22;5066059;28;20107;-60
2023/07/11 07:06:32;;;;;;;5.90;3.50;;;;;;;24.78;52.22;97312.84;5062394;28;20044;-60
2023/07/11 07:09:00;;;;;;;6.28;3.72;;;;;;;24.85;51.32;97311.47;5063243;28;20044;-59
2023/07/11 07:11:27;;;;;;;6.88;3.80;;;;;;;24.93;51.62;97311.34;5069079;28;20041;-61
2023/07/11 07:13:53;;;;;;;7.03;3.50;;;;;;;24.99;50.75;97311.91;5062355;28;20539;-59
2023/07/11 07:16:36;;;;;;;8.07;4.18;;;;;;;25.06;51.03;97306.56;5065272;28;20098;-59
2023/07/11 07:19:08;;;;;;;4.65;3.25;;;;;;;25.21;50.16;97307.03;5065347;28;20087;-61
2023/07/11 07:21:35;;;;;;;5.55;3.80;;;;;;;25.28;49.31;97306.41;5065281;28;20044;-57
2023/07/11 07:24:02;;;;;;;8.70;3.92;;;;;;;25.33;49.43;97309.72;5053392;28;20048;-59
2023/07/11 07:26:29;;;;;;;9.05;3.75;;;;;;;25.43;49.85;97305.66;5060075;28;20043;-55
2023/07/11 07:28:55;;;;;;;8.10;3.80;;;;;;;25.49;49.55;97306.22;5062518;28;20552;-59
2023/07/11 07:31:23;;;;;;;5.68;3.50;;;;;;;25.63;49.12;97297.53;5064268;28;20093;-59
2023/07/11 07:33:50;;;;;;;6.35;3.60;;;;;;;25.79;49.15;97296.75;5062066;28;20040;-60
2023/07/11 07:36:17;;;;;;;8.10;4.55;;;;;;;25.85;49.00;97295.31;5066945;28;20048;-58
2023/07/11 07:38:43;;;;;;;7.47;3.80;;;;;;;25.94;48.98;97286.84;5064699;28;20652;-58
2023/07/11 07:41:10;;;;;;;7.55;4.30;;;;;;;26.03;48.82;97298.56;5060828;28;20748;-58
2023/07/11 07:43:39;;;;;;;6.63;3.92;;;;;;;26.16;48.08;97295.72;5062436;28;20033;-60
2023/07/11 07:46:07;;;;;;;9.70;3.88;;;;;;;26.26;48.49;97300.75;5067225;28;20044;-60
2023/07/11 07:48:34;;;;;;;5.88;3.50;;;;;;;26.33;48.39;97289.84;5064865;28;20044;-60
2023/07/11 07:51:03;;;;;;;7.32;4.18;;;;;;;26.31;48.18;97289.38;5062694;28;20116;-60
2023/07/11 07:53:31;;;;;;;5.47;3.63;;;;;;;26.46;48.57;97290.53;5061685;28;20500;-60
2023/07/11 07:56:19;;;;;;;5.78;3.88;;;;;;;26.60;48.05;97287.28;5063160;28;20528;-59
2023/07/11 07:58:47;;;;;;;7.57;4.30;;;;;;;26.70;48.24;97276.78;5060914;28;20636;-58
2023/07/11 08:01:15;;;;;;;8.82;3.88;;;;;;;26.80;48.01;97276.25;5062810;28;20047;-58
2023/07/11 08:03:42;;;;;;;8.02;3.95;;;;;;;26.85;47.99;97278.72;5061836;28;20704;-58
2023/07/11 08:06:11;;;;;;;5.50;4.00;;;;;;;27.00;48.18;97282.66;5062065;28;20043;-60
2023/07/11 08:08:47;;;;;;;9.05;4.05;;;;;;;27.03;48.69;97278.34;5066498;28;20094;-59
2023/07/11 08:11:14;;;;;;;;;;;;;;;27.13;48.13;97263.84;5064892;28;20445;-61
2023/07/11 08:13:41;;;;;;;5.45;3.95;;;;;;;27.21;48.17;97270.38;5062238;28;19931;-59
2023/07/11 08:16:11;;;;;;;7.63;4.30;;;;;;;27.23;47.29;97267.25;5062615;28;20120;-59
2023/07/11 08:18:56;;;;;;;8.20;4.63;;;;;;;27.23;48.45;97268.03;5060951;28;20574;-60
2023/07/11 08:21:23;;;;;;;10.68;4.43;;;;;;;27.36;47.96;97265.09;5064291;28;20141;-60
2023/07/11 08:23:50;;;;;;;8.05;4.45;;;;;;;27.50;48.02;97268.16;5061369;28;20094;-58
2023/07/11 08:26:17;;;;;;;7.07;4.00;;;;;;;27.50;46.77;97259.03;5067457;28;20815;-58
2023/07/11 08:28:43;;;;;;;7.55;4.68;;;;;;;27.68;48.75;97259.41;5062562;28;20036;-60
2023/07/11 08:31:10;;;;;;;7.10;4.57;;;;;;;27.80;47.67;97250.06;5061883;28;20072;-58
2023/07/11 08:33:37;;;;;;;8.82;4.30;;;;;;;27.80;47.61;97252.84;5063004;28;20059;-59
2023/07/11 08:36:03;;;;;;;7.05;4.20;;;;;;;27.84;48.38;97239.81;5061265;28;20051;-61
2023/07/11 08:38:30;;;;;;;7.05;4.28;;;;;;;27.97;47.80;97236.84;5060741;28;20044;-57
2023/07/11 08:41:07;;;;;;;7.35;4.70;;;;;;;28.07;47.53;97233.44;5062250;28;20052;-59
2023/07/11 08:43:34;;;;;;;5.93;4.47;;;;;;;28.11;47.68;97236.28;5061157;28;20041;-58
2023/07/11 08:46:06;;;;;;;7.80;4.75;;;;;;;28.18;47.82;97233.59;5061265;28;20701;-58
2023/07/11 08:48:53;;;;;;;8.50;3.97;;;;;;;28.28;48.15;97235.78;5062368;28;20033;-59
2023/07/11 08:51:39;;;;;;;7.85;4.65;;;;;;;28.32;47.08;97232.25;5059017;28;20047;-59
2023/07/11 08:54:36;;;;;;;8.13;3.72;;;;;;;28.46;46.84;97226.09;5059728;28;20545;-60
2023/07/11 08:57:03;;;;;;;8.35;4.50;;;;;;;28.59;47.54;97216.34;5061906;28;20040;-60
2023/07/11 08:59:44;;;;;;;9.48;4.97;;;;;;;28.68;46.29;97225.22;5062477;28;20045;-60
2023/07/11 09:02:36;;;;;;;5.72;4.18;;;;;;;28.78;46.06;97222.97;5063249;28;20051;-60
2023/07/11 09:05:09;;;;;;;7.65;4.55;;;;;;;28.71;44.64;97214.50;5057715;28;20040;-59
2023/07/11 09:07:42;;;;;;;6.43;4.20;;;;;;;28.65;45.70;97200.91;5044116;28;20049;-60
2023/07/11 09:10:37;;;;;;;7.35;4.20;;;;;;;28.75;45.55;97204.22;5059289;28;20083;-59
2023/07/11 09:13:29;;;;;;;7.60;4.47;;;;;;;29.05;44.91;97207.03;5060116;28;20082;-59
2023/07/11 09:16:14;;;;;;;8.85;4.00;;;;;;;29.07;44.18;97196.28;5064637;28;20140;-64
2023/07/11 09:18:52;;;;;;;6.68;4.22;;;;;;;29.13;43.94;97193.97;5060091;28;20048;-62
2023/07/11 09:21:47;;;;;;;6.78;5.00;;;;;;;29.00;43.93;97192.63;5061159;28;20078;-62
2023/07/11 09:24:55;;;;;;;6.47;4.32;;;;;;;28.91;44.33;97195.69;5058411;28;20062;-61
2023/07/11 09:27:32;;;;;;;7.13;4.38;;;;;;;29.12;44.32;97195.16;5061053;28;20044;-61
2023/07/11 09:30:11;;;;;;;6.30;4.28;;;;;;;29.16;43.81;97190.44;5061474;28;20052;-61
2023/07/11 09:32:37;;;;;;;7.43;4.28;;;;;;;29.32;44.29;97190.19;5057452;28;20093;-61
2023/07/11 09:35:28;;;;;;;6.20;4.05;;;;;;;29.27;43.02;97178.59;5060393;28;20037;-61
2023/07/11 09:38:06;;;;;;;6.43;4.10;;;;;;;29.36;43.24;97176.28;5058078;28;20044;-61
2023/07/11 09:40:42;;;;;;;5.85;4.07;;;;;;;29.43;42.97;97172.78;5059901;28;20094;-61
2023/07/11 09:43:09;;;;;;;6.45;4.13;;;;;;;29.50;42.45;97178.44;5060759;28;20113;-62
2023/07/11 09:45:41;;;;;;;8.30;4.15;;;;;;;29.59;42.85;97173.34;5062213;28;20040;-63
2023/07/11 09:48:13;;;;;;;7.63;4.57;;;;;;;29.73;42.71;97169.09;5065399;28;20044;-62
2023/07/11 09:50:58;;;;;;;6.25;4.22;;;;;;;29.88;41.93;97174.81;5060909;28;20051;-62
2023/07/11 09:53:29;;;;;;;8.18;4.38;;;;;;;30.03;41.41;97175.72;5057700;28;20044;-61
2023/07/11 09:56:01;;;;;;;6.88;4.30;;;;;;;29.92;41.02;97175.63;5073293;28;20041;-60
2023/07/11 09:58:40;;;;;;;7.10;4.68;;;;;;;29.81;40.81;97164.38;5058699;28;20044;-61
2023/07/11 10:01:17;;;;;;;6.88;4.70;;;;;;;29.95;41.56;97167.28;5064727;28;20681;-62
2023/07/11 10:03:47;;;;;;;7.20;4.38;;;;;;;30.17;40.73;97170.25;5061211;28;20048;-61
2023/07/11 10:06:32;;;;;;;8.05;4.32;;;;;;;30.42;40.96;97174.41;5060404;28;20063;-61
2023/07/11 10:09:20;;;;;;;7.32;4.63;;;;;;;30.49;40.45;97168.88;5059911;28;20052;-60
2023/07/11 10:11:51;;;;;;;9.10;4.40;;;;;;;30.54;41.47;97162.91;5057012;28;20132;-62
2023/07/11 10:14:20;;;;;;;6.45;4.30;;;;;;;30.73;40.73;97163.84;5062794;28;20558;-61
2023/07/11 10:16:47;;;;;;;8.13;4.43;;;;;;;30.62;39.89;97156.16;5062465;28;20044;-60
2023/07/11 10:19:16;;;;;;;7.38;4.32;;;;;;;30.92;39.59;97151.53;5063745;28;20068;-61
2023/07/11 10:21:46;;;;;;;6.60;5.03;;;;;;;31.15;39.93;97159.56;5063487;28;20048;-62
2023/07/11 10:24:19;;;;;;;8.70;4.93;;;;;;;31.15;39.47;97151.19;5061628;28;20090;-61
2023/07/11 10:26:49;;;;;;;10.02;4.60;;;;;;;31.16;39.55;97154.78;5044832;28;20531;-60
2023/07/11 10:29:19;;;;;;;7.03;4.50;;;;;;;31.44;39.03;97153.28;5063224;28;20503;-60
2023/07/11 10:31:56;;;;;;;8.27;4.53;;;;;;;31.42;38.71;97155.66;5061490;28;20071;-60
2023/07/11 10:34:37;;;;;;;6.50;4.63;;;;;;;31.37;39.01;97156.88;5061992;28;20119;-61
2023/07/11 10:37:15;;;;;;;6.35;4.55;;;;;;;31.03;38.80;97148.78;5063756;28;20047;-61
2023/07/11 10:39:48;;;;;;;7.80;5.20;;;;;;;31.09;40.35;97151.97;5063856;28;20041;-61
2023/07/11 10:42:23;;;;;;;8.73;4.97;;;;;;;31.25;39.29;97146.03;5063547;28;20120;-61
2023/07/11 10:45:00;;;;;;;9.43;4.90;;;;;;;31.35;39.13;97131.28;5058735;28;20052;-59
2023/07/11 10:47:32;;;;;;;8.25;4.53;;;;;;;31.34;39.14;97128.88;5038406;28;20063;-59
2023/07/11 10:50:06;;;;;;;8.35;4.55;;;;;;;31.37;39.43;97134.50;5055313;28;20102;-61
2023/07/11 10:52:35;;;;;;;8.32;5.07;;;;;;;31.20;39.20;97130.44;5062962;28;20047;-62
2023/07/11 10:55:19;;;;;;;7.28;4.80;;;;;;;31.49;38.84;97116.53;5061313;28;20052;-61
2023/07/11 10:57:52;;;;;;;7.47;4.43;;;;;;;31.78;38.74;97118.53;5061127;28;20048;-61
2023/07/11 11:00:24;;;;;;;7.55;4.80;;;;;;;32.07;38.80;97123.31;5063464;28;20075;-60
2023/07/11 11:03:16;;;;;;;8.25;4.90;;;;;;;32.21;38.18;97105.69;5063176;28;20078;-62
2023/07/11 11:05:56;;;;;;;7.25;4.57;;;;;;;32.51;37.45;97108.03;5061289;28;20036;-59
2023/07/11 11:08:33;;;;;;;6.30;4.13;;;;;;;32.39;37.42;97103.63;5060695;28;20052;-60
2023/07/11 11:11:18;;;;;;;7.53;4.57;;;;;;;32.84;37.30;97102.28;5074833;28;20049;-59
2023/07/11 11:13:56;;;;;;;8.85;5.00;;;;;;;32.98;36.67;97090.16;5061645;28;20404;-58
2023/07/11 11:16:39;;;;;;;6.68;4.57;;;;;;;33.15;36.47;97088.50;5063488;28;20494;-56
2023/07/11 11:19:25;;;;;;;7.38;4.70;;;;;;;32.83;36.38;97076.25;5057940;28;20115;-57
2023/07/11 11:22:12;;;;;;;7.05;4.50;;;;;;;32.81;36.76;97075.06;5062618;28;20052;-59
2023/07/11 11:25:00;;;;;;;7.70;4.30;;;;;;;32.77;36.36;97071.47;5055399;28;20040;-59
2023/07/11 11:27:46;;;;;;;8.18;5.10;;;;;;;32.64;37.36;97068.31;5063074;28;20132;-60
2023/07/11 11:30:19;;;;;;;9.95;5.05;;;;;;;32.47;36.82;97067.22;5063659;28;20045;-61
2023/07/11 11:33:11;;;;;;;5.72;4.32;;;;;;;32.66;36.80;97063.13;5051817;28;20052;-59
2023/07/11 11:36:08;;;;;;;9.02;5.25;;;;;;;32.88;36.41;97058.22;5056801;28;20648;-63
2023/07/11 11:38:54;;;;;;;7.72;4.82;;;;;;;33.08;36.17;97047.28;5050665;28;20053;-61
2023/07/11 11:41:37;;;;;;;8.38;4.82;;;;;;;33.09;35.79;97056.50;5060296;28;20410;-60
2023/07/11 11:44:13;;;;;;;8.23;4.72;;;;;;;33.00;35.85;97048.53;5058965;28;20129;-59
2023/07/11 11:46:44;;;;;;;8.65;4.95;;;;;;;32.95;35.89;97046.16;5061031;28;20037;-58
2023/07/11 11:49:19;;;;;;;9.27;5.05;;;;;;;32.99;36.52;97038.50;5062122;28;20048;-61